createdAt,value
2023-04-13T00:00:57.268Z,4.31
2023-04-13T00:10:57.505Z,4.31
2023-04-13T00:20:57.710Z,4.98
2023-04-13T00:30:58.008Z,3.83
2023-04-13T00:40:58.199Z,4.31
2023-04-13T00:50:58.402Z,4.65
2023-04-13T01:00:58.621Z,4.14
2023-04-13T01:10:58.832Z,4.65
2023-04-13T01:20:59.042Z,4.16
2023-04-13T01:30:59.265Z,3.50
2023-04-13T01:40:59.519Z,3.67
2023-04-13T01:50:59.744Z,3.33
2023-04-13T02:00:59.964Z,2.98
2023-04-13T02:11:00.191Z,2.45
2023-04-13T02:21:00.385Z,3.16
2023-04-13T02:31:00.611Z,4.16
2023-04-13T02:41:00.818Z,4.64
2023-04-13T02:51:01.043Z,4.16
2023-04-13T03:01:01.285Z,4.32
2023-04-13T03:11:01.468Z,3.01
2023-04-13T03:21:01.661Z,2.85
2023-04-13T03:31:01.911Z,3.01
2023-04-13T03:41:02.096Z,3.18
2023-04-13T03:51:02.286Z,3.01
2023-04-13T04:01:02.499Z,3.01
2023-04-13T04:11:02.717Z,3.50
2023-04-13T04:21:02.943Z,3.18
2023-04-13T04:31:03.125Z,3.50
2023-04-13T04:41:03.340Z,3.50
2023-04-13T04:51:03.567Z,3.65
2023-04-13T05:01:03.777Z,3.34
2023-04-13T05:11:03.964Z,3.34
2023-04-13T05:21:04.178Z,3.18
2023-04-13T05:31:04.383Z,3.18
2023-04-13T05:41:04.594Z,3.34
2023-04-13T05:51:04.802Z,3.18
2023-04-13T06:01:04.995Z,3.18
2023-04-13T06:11:05.199Z,3.01
2023-04-13T06:21:05.389Z,3.18
2023-04-13T06:31:05.645Z,2.85
2023-04-13T06:41:05.842Z,3.83
2023-04-13T06:51:06.062Z,4.00
2023-04-13T07:01:07.592Z,4.00
2023-04-13T07:11:06.430Z,4.00
2023-04-13T07:21:06.632Z,3.67
2023-04-13T07:31:06.864Z,4.00
2023-04-13T07:41:07.047Z,3.83
2023-04-13T07:51:07.243Z,3.83
2023-04-13T08:01:07.461Z,3.16
2023-04-13T08:11:07.663Z,3.78
2023-04-13T08:21:07.876Z,3.96
2023-04-13T08:31:08.080Z,4.14
2023-04-13T08:41:08.279Z,3.78
2023-04-13T08:51:08.470Z,3.42
2023-04-13T09:01:08.749Z,3.84
2023-04-13T09:11:08.956Z,3.06
2023-04-13T09:21:09.166Z,3.61
2023-04-13T09:31:09.419Z,3.93
2023-04-13T09:41:09.592Z,3.72
2023-04-13T09:51:09.819Z,2.82
2023-04-13T10:01:10.027Z,2.80
2023-04-13T10:11:10.210Z,2.11
2023-04-13T10:21:10.425Z,1.36
2023-04-13T10:31:10.679Z,1.86
2023-04-13T10:41:10.830Z,1.36
2023-04-13T10:51:11.025Z,2.11
2023-04-13T11:01:11.248Z,2.58
2023-04-13T11:11:14.815Z,2.10
2023-04-13T11:21:11.642Z,3.40
2023-04-13T11:31:12.145Z,3.26
2023-04-13T11:41:16.849Z,3.84
2023-04-13T11:51:13.211Z,3.19
2023-04-13T12:01:14.965Z,2.03
2023-04-13T12:31:12.999Z,2.24
2023-04-13T12:41:13.191Z,2.45
2023-04-13T12:51:13.423Z,2.45
2023-04-13T13:01:34.635Z,2.24
2023-04-13T13:11:13.881Z,2.65
2023-04-13T13:21:14.073Z,1.49
2023-04-13T13:31:14.265Z,2.29
2023-04-13T13:41:14.478Z,2.49
2023-04-13T13:51:14.672Z,3.06
2023-04-13T14:01:14.931Z,2.24
2023-04-13T14:11:15.212Z,1.70
2023-04-13T14:21:15.234Z,2.45
2023-04-13T14:31:15.473Z,2.45
2023-04-13T14:41:15.678Z,2.24
2023-04-13T14:51:15.886Z,1.60
2023-04-13T15:01:16.107Z,1.81
2023-04-13T15:11:16.436Z,1.81
2023-04-13T15:21:16.429Z,1.81
2023-04-13T15:31:16.643Z,1.60
2023-04-13T15:41:16.857Z,1.15
2023-04-13T15:51:17.124Z,1.38
2023-04-13T16:01:17.386Z,2.33
2023-04-13T16:11:17.582Z,1.15
2023-04-13T16:21:17.937Z,0.93
2023-04-13T16:31:18.195Z,1.15
2023-04-13T16:41:18.061Z,2.77
2023-04-13T16:51:18.289Z,2.24
2023-04-13T17:01:18.584Z,2.24
2023-04-13T17:11:18.707Z,2.10
2023-04-13T17:21:18.961Z,3.06
2023-04-13T17:31:19.085Z,3.24
2023-04-13T17:41:18.968Z,3.24
2023-04-13T17:51:19.244Z,3.78
2023-04-13T18:01:19.366Z,4.14
2023-04-13T18:11:19.495Z,4.98
2023-04-13T18:21:21.040Z,4.16
2023-04-13T18:31:19.961Z,4.16
2023-04-13T18:41:20.448Z,4.16
2023-04-13T18:51:20.437Z,4.48
2023-04-13T19:01:20.387Z,4.16
2023-04-13T19:11:20.904Z,4.00
2023-04-13T19:21:21.077Z,4.00
2023-04-13T19:31:21.262Z,4.48
2023-04-13T19:41:21.136Z,4.48
2023-04-13T19:51:21.765Z,4.64
2023-04-13T20:01:21.831Z,4.80
2023-04-13T20:11:22.147Z,4.95
2023-04-13T20:21:21.828Z,5.11
2023-04-13T20:31:22.391Z,4.95
2023-04-13T20:41:22.511Z,4.95
2023-04-13T20:51:22.402Z,4.95
2023-04-13T21:01:22.729Z,4.95
2023-04-13T21:11:22.747Z,4.95
2023-04-13T21:21:23.009Z,4.95
2023-04-13T21:31:23.231Z,4.95
2023-04-13T21:41:23.396Z,4.95
2023-04-13T21:51:23.599Z,5.11
2023-04-13T22:01:23.824Z,4.11
2023-04-13T22:11:24.007Z,4.11
2023-04-13T22:21:24.239Z,3.81
2023-04-13T22:31:24.554Z,3.65
2023-04-13T22:41:24.641Z,3.96
2023-04-13T22:51:24.660Z,3.96
2023-04-13T23:01:24.889Z,4.11
2023-04-13T23:11:25.066Z,4.11
2023-04-13T23:21:25.260Z,4.11
2023-04-13T23:31:25.509Z,4.27
2023-04-13T23:41:25.712Z,4.27
2023-04-13T23:51:25.801Z,4.27
